Aviation Digital Data Service (ADDS)

Output produced by METARs form (1434 UTC 27 March 2017)
found at http://aviationweather.gov/adds/metars/
 
KTOL 271139Z 2712/2812 23007KT P6SM OVC015 
     FM271700 24007KT P6SM BKN025 
     FM271900 24007KT P6SM BKN050 
     FM272300 VRB03KT P6SM OVC100 
     FM280400 04003KT 5SM -RA OVC012 
     FM280600 02007KT 3SM -RA BR OVC007